Time;durP1;ratioP1;P1;durP2;ratioP2;P2;SDS_P1;SDS_P2;PMS_P1;PMS_P2;Temp;Humidity;BMP_temperature;BMP_pressure;BME280_temperature;BME280_humidity;BME280_pressure;Samples;Min_cycle;Max_cycle;Signal;HPM_P1;HPM_P2
2021/07/15 00:01:05;;;;;;;0.97;0.97;;;16.20;99.90;;;;;;5015504;28;20194;-87
2021/07/15 00:03:31;;;;;;;1.23;1.00;;;16.20;99.90;;;;;;5021584;28;20188;-87
2021/07/15 00:05:58;;;;;;;0.90;0.90;;;16.20;99.90;;;;;;5020912;28;20206;-87
2021/07/15 00:08:26;;;;;;;0.90;0.90;;;16.20;99.90;;;;;;5005331;28;20193;-86
2021/07/15 00:10:59;;;;;;;1.10;1.03;;;16.20;99.90;;;;;;5002854;28;20198;-86
2021/07/15 00:13:26;;;;;;;0.90;0.90;;;16.10;99.90;;;;;;5020905;28;20190;-87
2021/07/15 00:15:58;;;;;;;1.00;1.00;;;16.20;99.90;;;;;;5032583;28;20185;-87
2021/07/15 00:18:31;;;;;;;0.97;0.97;;;16.10;99.90;;;;;;5026443;28;20175;-88
2021/07/15 00:20:59;;;;;;;0.90;0.90;;;16.10;99.90;;;;;;5037218;28;20172;-89
2021/07/15 00:23:26;;;;;;;0.97;0.97;;;16.10;99.90;;;;;;5028559;28;20198;-88
2021/07/15 00:25:52;;;;;;;1.50;1.00;;;16.10;99.90;;;;;;5037150;28;20216;-88
2021/07/15 00:28:19;;;;;;;0.97;0.90;;;16.00;99.90;;;;;;5037156;28;20186;-88
2021/07/15 00:30:45;;;;;;;1.00;1.00;;;16.00;99.90;;;;;;5036110;28;20213;-88
2021/07/15 00:33:11;;;;;;;0.90;0.90;;;16.10;99.90;;;;;;5036480;28;20205;-88
2021/07/15 00:35:38;;;;;;;1.07;0.93;;;16.20;99.90;;;;;;5024216;28;20241;-88
2021/07/15 00:38:05;;;;;;;1.13;1.10;;;16.20;99.90;;;;;;5008675;28;20236;-88
2021/07/15 00:40:31;;;;;;;1.37;1.10;;;16.10;99.90;;;;;;5019946;28;20400;-89
2021/07/15 00:42:57;;;;;;;1.23;0.90;;;16.10;99.90;;;;;;5020079;28;20259;-88
2021/07/15 00:45:23;;;;;;;0.90;0.90;;;16.00;99.90;;;;;;5019638;28;20645;-88
2021/07/15 00:47:49;;;;;;;0.83;0.83;;;15.90;99.90;;;;;;5025624;28;20233;-89
2021/07/15 00:50:19;;;;;;;1.00;1.00;;;15.80;99.90;;;;;;5034318;28;20186;-88
2021/07/15 00:52:45;;;;;;;0.90;0.90;;;15.90;99.90;;;;;;5033852;28;20179;-87
2021/07/15 00:55:25;;;;;;;1.13;1.00;;;15.90;99.90;;;;;;5032450;28;20209;-87
2021/07/15 00:57:51;;;;;;;1.17;1.07;;;16.00;99.90;;;;;;5030186;28;20208;-87
2021/07/15 01:00:18;;;;;;;0.90;0.90;;;15.90;99.90;;;;;;5016334;28;20193;-87
2021/07/15 01:02:44;;;;;;;1.00;1.00;;;15.90;99.90;;;;;;5011159;28;20205;-88
2021/07/15 01:05:22;;;;;;;1.00;1.00;;;15.90;99.90;;;;;;5018955;28;20584;-88
2021/07/15 01:07:48;;;;;;;1.00;1.00;;;15.90;99.90;;;;;;5018775;28;20217;-87
2021/07/15 01:10:18;;;;;;;0.90;0.90;;;16.00;99.90;;;;;;5019744;28;20198;-88
2021/07/15 01:13:10;;;;;;;1.10;1.07;;;16.10;99.90;;;;;;5017360;28;20288;-88
2021/07/15 01:15:49;;;;;;;1.10;1.10;;;16.10;99.90;;;;;;5018274;28;20694;-88
2021/07/15 01:18:24;;;;;;;0.93;0.93;;;16.10;99.90;;;;;;5019137;28;20555;-88
2021/07/15 01:21:18;;;;;;;1.00;1.00;;;16.00;99.90;;;;;;5011654;28;20189;-88
2021/07/15 01:24:05;;;;;;;1.23;1.00;;;16.10;99.90;;;;;;5018634;28;20359;-88
2021/07/15 01:26:42;;;;;;;0.90;0.90;;;16.10;99.90;;;;;;5018350;28;20282;-88
2021/07/15 01:29:28;;;;;;;1.33;0.93;;;16.10;99.90;;;;;;5017745;28;20181;-88
2021/07/15 01:31:57;;;;;;;1.00;1.00;;;16.10;99.90;;;;;;5018602;28;20659;-88
2021/07/15 01:34:23;;;;;;;1.30;1.00;;;16.10;99.90;;;;;;5017547;28;20237;-87
2021/07/15 01:36:53;;;;;;;0.90;0.90;;;16.10;99.90;;;;;;5017961;28;20270;-87
2021/07/15 01:39:26;;;;;;;0.97;0.97;;;16.00;99.90;;;;;;5018925;28;20277;-87
2021/07/15 01:41:56;;;;;;;1.30;0.90;;;16.00;99.90;;;;;;5017780;28;20222;-87
2021/07/15 01:44:28;;;;;;;1.00;1.00;;;15.90;99.90;;;;;;5018563;28;20286;-87
2021/07/15 01:46:54;;;;;;;1.00;1.00;;;16.00;99.90;;;;;;5017948;28;20204;-88
2021/07/15 01:49:21;;;;;;;1.00;1.00;;;16.00;99.90;;;;;;5017800;28;20691;-88
2021/07/15 01:51:47;;;;;;;0.90;0.90;;;16.10;99.90;;;;;;5018104;28;20194;-88
2021/07/15 01:54:13;;;;;;;1.00;1.00;;;16.10;99.90;;;;;;5018367;28;20206;-87
2021/07/15 01:56:41;;;;;;;1.23;1.13;;;16.10;99.90;;;;;;5018655;28;20206;-87
2021/07/15 01:59:12;;;;;;;1.80;1.00;;;16.20;99.90;;;;;;5020845;28;20174;-88
2021/07/15 02:01:39;;;;;;;0.97;0.97;;;16.30;99.90;;;;;;5018407;28;20180;-87
2021/07/15 02:04:06;;;;;;;0.90;0.90;;;16.30;99.90;;;;;;5004657;28;20281;-87
2021/07/15 02:06:33;;;;;;;1.20;1.10;;;16.30;99.90;;;;;;5014624;28;20235;-87
2021/07/15 02:09:00;;;;;;;1.10;1.10;;;16.20;99.90;;;;;;5014553;28;20189;-87
2021/07/15 02:11:33;;;;;;;2.07;1.27;;;16.20;99.90;;;;;;5014363;28;20211;-87
2021/07/15 02:14:05;;;;;;;2.30;1.00;;;16.20;99.90;;;;;;5013867;28;20200;-88
2021/07/15 02:16:32;;;;;;;1.00;1.00;;;16.10;99.90;;;;;;5014899;28;20217;-87
2021/07/15 02:19:00;;;;;;;4.07;1.13;;;16.20;99.90;;;;;;5013074;28;20262;-87
2021/07/15 02:21:28;;;;;;;1.13;1.00;;;16.10;99.90;;;;;;5014358;28;20891;-88
2021/07/15 02:23:56;;;;;;;1.53;1.10;;;16.10;99.90;;;;;;5014969;28;20183;-87
2021/07/15 02:26:23;;;;;;;1.00;1.00;;;16.10;99.90;;;;;;5006056;28;20220;-87
2021/07/15 02:28:49;;;;;;;1.80;1.00;;;16.10;99.90;;;;;;5014986;28;20217;-87
2021/07/15 02:31:17;;;;;;;1.50;1.07;;;16.10;99.90;;;;;;5014485;28;20935;-88
2021/07/15 02:33:49;;;;;;;1.27;1.10;;;16.10;99.90;;;;;;5013348;28;20273;-87
2021/07/15 02:36:18;;;;;;;1.00;1.00;;;16.20;99.90;;;;;;5014166;28;20225;-88
2021/07/15 02:38:47;;;;;;;2.20;1.17;;;16.10;99.90;;;;;;5014896;28;20188;-87
2021/07/15 02:41:12;;;;;;;1.20;1.10;;;16.10;99.90;;;;;;5003343;28;20273;-88
2021/07/15 02:43:38;;;;;;;1.10;1.00;;;16.00;99.90;;;;;;5014652;28;20611;-87
2021/07/15 02:46:04;;;;;;;1.43;1.10;;;16.10;99.90;;;;;;5014730;28;20609;-87
2021/07/15 02:48:29;;;;;;;0.90;0.90;;;16.10;99.90;;;;;;5014741;28;20698;-87
2021/07/15 02:50:55;;;;;;;1.00;1.00;;;16.00;99.90;;;;;;5014100;28;20244;-87
2021/07/15 02:53:21;;;;;;;1.10;1.10;;;16.10;99.90;;;;;;5014352;28;20201;-87
2021/07/15 02:55:56;;;;;;;1.60;1.07;;;16.20;99.90;;;;;;5013879;28;20737;-87
2021/07/15 02:58:37;;;;;;;2.87;1.07;;;16.30;99.90;;;;;;5014139;28;20619;-86
2021/07/15 03:01:07;;;;;;;1.10;1.10;;;16.20;99.90;;;;;;5013625;28;20709;-87
2021/07/15 03:03:51;;;;;;;1.10;1.10;;;16.20;99.90;;;;;;5013788;28;20218;-86
2021/07/15 03:06:22;;;;;;;1.40;1.30;;;16.10;99.90;;;;;;5013608;28;20210;-85
2021/07/15 03:08:56;;;;;;;1.10;1.00;;;16.30;99.90;;;;;;5014377;28;20192;-86
2021/07/15 03:11:28;;;;;;;2.93;1.23;;;16.20;99.90;;;;;;5013102;28;20197;-85
2021/07/15 03:13:56;;;;;;;1.10;1.10;;;16.20;99.90;;;;;;5013582;28;20188;-88
2021/07/15 03:16:23;;;;;;;1.20;1.20;;;16.30;99.90;;;;;;5013897;28;20277;-88
2021/07/15 03:18:50;;;;;;;1.13;1.10;;;16.30;99.60;;;;;;4996634;28;20189;-88
2021/07/15 03:21:19;;;;;;;2.30;1.20;;;16.30;99.90;;;;;;5013248;28;20179;-87
2021/07/15 03:23:47;;;;;;;1.17;1.17;;;16.10;99.90;;;;;;5013425;28;20210;-88
2021/07/15 03:26:15;;;;;;;3.30;1.30;;;16.10;99.90;;;;;;5013600;28;20216;-86
2021/07/15 03:28:43;;;;;;;1.30;1.20;;;16.20;99.90;;;;;;5014684;28;20193;-83
2021/07/15 03:31:11;;;;;;;3.10;1.23;;;16.30;99.90;;;;;;5013035;28;20276;-86
2021/07/15 03:33:38;;;;;;;1.90;1.20;;;16.20;99.90;;;;;;5013767;28;20201;-85
2021/07/15 03:36:06;;;;;;;1.30;1.20;;;16.10;99.90;;;;;;5014168;28;20239;-86
2021/07/15 03:38:39;;;;;;;1.87;1.10;;;16.10;99.90;;;;;;5013858;28;20243;-86
2021/07/15 03:41:06;;;;;;;1.20;1.20;;;16.20;99.90;;;;;;5012580;28;20188;-86
2021/07/15 03:43:36;;;;;;;3.40;1.10;;;16.00;99.90;;;;;;5012915;28;20551;-85
2021/07/15 03:46:02;;;;;;;1.20;1.00;;;16.00;99.90;;;;;;5024669;28;20206;-85
2021/07/15 03:48:29;;;;;;;3.00;1.20;;;15.90;99.90;;;;;;5013330;28;20203;-86
2021/07/15 03:51:00;;;;;;;1.27;1.23;;;16.00;99.90;;;;;;5014456;28;20185;-85
2021/07/15 03:53:27;;;;;;;1.10;1.00;;;16.00;99.90;;;;;;5012619;28;20189;-86
2021/07/15 03:55:55;;;;;;;1.57;1.20;;;15.90;99.90;;;;;;5013400;28;20212;-85
2021/07/15 03:58:22;;;;;;;1.13;1.13;;;15.90;99.90;;;;;;5026989;28;20184;-84
2021/07/15 04:00:50;;;;;;;1.87;1.13;;;15.90;99.90;;;;;;5032718;28;20184;-86
2021/07/15 04:03:20;;;;;;;1.13;1.13;;;16.00;99.90;;;;;;5032854;28;20184;-84
2021/07/15 04:05:49;;;;;;;1.73;1.10;;;15.90;99.90;;;;;;5033097;28;20194;-86
2021/07/15 04:08:16;;;;;;;1.30;1.20;;;16.00;99.90;;;;;;5032394;28;20182;-87
2021/07/15 04:10:43;;;;;;;1.37;1.10;;;16.00;99.90;;;;;;5006954;28;20600;-87
2021/07/15 04:13:12;;;;;;;1.83;1.20;;;16.00;99.90;;;;;;5013868;28;20202;-87
2021/07/15 04:16:09;;;;;;;1.10;1.10;;;15.90;99.90;;;;;;5014856;28;20224;-86
2021/07/15 04:18:38;;;;;;;1.00;1.00;;;16.00;99.90;;;;;;5013688;28;20195;-86
2021/07/15 04:21:05;;;;;;;1.10;1.10;;;16.00;99.90;;;;;;5012424;28;20197;-87
2021/07/15 04:23:32;;;;;;;1.50;1.40;;;16.10;99.90;;;;;;5013258;28;20641;-87
2021/07/15 04:25:58;;;;;;;4.30;1.50;;;16.10;99.90;;;;;;5021873;28;20219;-86
2021/07/15 04:28:25;;;;;;;5.00;1.60;;;16.10;99.90;;;;;;5032615;28;20201;-85
2021/07/15 04:31:08;;;;;;;2.77;1.50;;;16.00;99.90;;;;;;5032018;28;20190;-86
2021/07/15 04:33:35;;;;;;;2.97;1.40;;;16.00;99.90;;;;;;5036044;28;20214;-87
2021/07/15 04:36:01;;;;;;;2.57;1.73;;;16.00;99.90;;;;;;5020886;28;20221;-87
2021/07/15 04:38:27;;;;;;;1.50;1.40;;;16.00;99.90;;;;;;5018766;28;20181;-87
2021/07/15 04:40:54;;;;;;;1.73;1.63;;;16.10;99.90;;;;;;5018618;28;20192;-87
2021/07/15 04:43:22;;;;;;;2.23;1.40;;;16.10;99.90;;;;;;5017496;28;20189;-87
2021/07/15 04:45:49;;;;;;;1.80;1.70;;;16.10;99.90;;;;;;5019120;28;20206;-88
2021/07/15 04:48:17;;;;;;;1.60;1.50;;;16.00;99.90;;;;;;5037364;28;20204;-87
2021/07/15 04:50:43;;;;;;;2.77;1.60;;;16.10;99.90;;;;;;5029241;28;20662;-88
2021/07/15 04:53:12;;;;;;;2.23;1.70;;;16.20;99.90;;;;;;5017741;28;20258;-87
2021/07/15 04:55:39;;;;;;;2.00;1.90;;;16.10;99.90;;;;;;5017619;28;20193;-87
2021/07/15 04:58:06;;;;;;;2.10;1.70;;;16.20;99.90;;;;;;5018036;28;20204;-88
2021/07/15 05:00:32;;;;;;;6.23;1.90;;;16.10;99.90;;;;;;5000212;28;20185;-88
2021/07/15 05:03:07;;;;;;;1.80;1.70;;;16.20;99.90;;;;;;5017830;28;20167;-87
2021/07/15 05:05:33;;;;;;;2.27;1.70;;;16.20;99.90;;;;;;5017456;28;20624;-86
2021/07/15 05:07:59;;;;;;;2.70;1.50;;;16.40;99.90;;;;;;5016617;28;20185;-88
2021/07/15 05:10:24;;;;;;;2.33;1.67;;;16.40;99.90;;;;;;5017290;28;20185;-88
2021/07/15 05:12:50;;;;;;;1.60;1.50;;;16.40;99.90;;;;;;5016640;28;20186;-87
2021/07/15 05:15:16;;;;;;;1.97;1.50;;;16.30;99.90;;;;;;5028804;28;20281;-87
2021/07/15 05:17:42;;;;;;;3.93;1.60;;;16.20;99.90;;;;;;5037238;28;20205;-88
2021/07/15 05:20:08;;;;;;;1.97;1.40;;;16.30;99.90;;;;;;5036458;28;20185;-87
2021/07/15 05:22:35;;;;;;;2.17;1.70;;;16.50;99.90;;;;;;5036083;28;20196;-88
2021/07/15 05:25:01;;;;;;;1.70;1.60;;;16.30;99.90;;;;;;5035427;28;20839;-87
2021/07/15 05:27:26;;;;;;;3.67;1.70;;;16.30;99.90;;;;;;5035459;28;20198;-88
2021/07/15 05:29:52;;;;;;;2.60;1.70;;;16.30;99.90;;;;;;5018962;28;20203;-87
2021/07/15 05:32:18;;;;;;;2.83;1.50;;;16.50;99.90;;;;;;5017958;28;20220;-87
2021/07/15 05:34:44;;;;;;;1.63;1.47;;;16.60;99.90;;;;;;5020535;28;20708;-87
2021/07/15 05:37:10;;;;;;;3.43;1.40;;;16.70;99.90;;;;;;5037734;28;20279;-87
2021/07/15 05:39:39;;;;;;;3.50;1.30;;;16.80;99.90;;;;;;5036362;28;20181;-87
2021/07/15 05:42:05;;;;;;;1.33;1.30;;;16.90;99.90;;;;;;5034279;28;20656;-87
2021/07/15 05:44:31;;;;;;;3.10;1.60;;;16.90;99.90;;;;;;5017386;28;20178;-86
2021/07/15 05:46:56;;;;;;;1.98;1.40;;;17.00;99.90;;;;;;5015531;28;20752;-87
2021/07/15 05:49:22;;;;;;;1.43;1.37;;;17.10;99.90;;;;;;5016493;28;20210;-87
2021/07/15 05:51:49;;;;;;;2.08;1.40;;;17.00;99.60;;;;;;5015752;28;20216;-87
2021/07/15 05:54:16;;;;;;;1.70;1.53;;;17.00;99.20;;;;;;5016978;28;20241;-87
2021/07/15 05:56:42;;;;;;;1.90;1.50;;;17.00;98.90;;;;;;5018892;28;20224;-88
2021/07/15 05:59:08;;;;;;;2.97;1.60;;;17.00;99.00;;;;;;5031110;28;20206;-88
2021/07/15 06:01:34;;;;;;;2.05;1.52;;;17.00;99.00;;;;;;5016192;28;20185;-89
2021/07/15 06:03:59;;;;;;;5.25;1.80;;;16.90;99.90;;;;;;5016416;28;20176;-89
2021/07/15 06:06:25;;;;;;;2.33;1.63;;;16.80;99.90;;;;;;5016845;28;20210;-89
2021/07/15 06:08:53;;;;;;;1.65;1.55;;;16.70;99.90;;;;;;5015635;28;20179;-87
2021/07/15 06:11:19;;;;;;;5.72;1.80;;;16.80;99.90;;;;;;5015643;28;20187;-89
2021/07/15 06:13:45;;;;;;;3.87;1.70;;;16.90;99.90;;;;;;5037017;28;20214;-87
2021/07/15 06:16:10;;;;;;;4.60;1.80;;;17.00;99.90;;;;;;5050988;28;20351;-88
2021/07/15 06:18:36;;;;;;;1.73;1.63;;;17.10;99.90;;;;;;5045716;28;20250;-87
2021/07/15 06:21:04;;;;;;;6.53;2.10;;;17.00;99.90;;;;;;5029756;28;20185;-88
2021/07/15 06:23:32;;;;;;;2.93;1.90;;;17.00;99.90;;;;;;5024392;28;20185;-87
2021/07/15 06:25:59;;;;;;;4.13;1.60;;;17.10;99.90;;;;;;5014826;28;20203;-87
2021/07/15 06:28:28;;;;;;;2.23;1.70;;;17.20;99.90;;;;;;5007196;28;20185;-88
2021/07/15 06:30:54;;;;;;;2.83;1.60;;;17.10;99.90;;;;;;4997857;28;20187;-87
2021/07/15 06:33:20;;;;;;;2.97;1.50;;;17.20;98.70;;;;;;5015712;28;20193;-88
2021/07/15 06:35:49;;;;;;;1.70;1.60;;;17.10;99.90;;;;;;5015998;28;20206;-88
2021/07/15 06:38:16;;;;;;;2.43;1.60;;;17.00;99.60;;;;;;5015178;28;20189;-87
2021/07/15 06:40:46;;;;;;;1.47;1.37;;;17.10;99.90;;;;;;5014865;28;20181;-87
2021/07/15 06:43:12;;;;;;;2.33;1.93;;;17.00;99.90;;;;;;4998588;28;20188;-89
2021/07/15 06:45:38;;;;;;;3.47;1.63;;;17.00;99.90;;;;;;5015787;28;20204;-87
2021/07/15 06:48:04;;;;;;;5.37;1.63;;;17.00;99.90;;;;;;5013375;28;20184;-87
2021/07/15 06:50:30;;;;;;;1.37;1.37;;;16.90;99.90;;;;;;5012371;28;20563;-88
2021/07/15 06:52:55;;;;;;;1.80;1.50;;;16.90;99.90;;;;;;5009788;28;20202;-88
2021/07/15 06:55:21;;;;;;;2.87;1.60;;;16.90;99.90;;;;;;5005177;28;20206;-90
2021/07/15 06:57:47;;;;;;;1.73;1.40;;;17.00;99.90;;;;;;5014600;28;20219;-90
2021/07/15 07:00:17;;;;;;;3.17;1.60;;;17.20;99.90;;;;;;5014480;28;20360;-90
2021/07/15 07:02:45;;;;;;;1.70;1.60;;;17.10;99.90;;;;;;5014216;28;20183;-90
2021/07/15 07:05:12;;;;;;;1.40;1.30;;;17.40;99.40;;;;;;5015547;28;20259;-90
2021/07/15 07:07:38;;;;;;;1.90;1.50;;;17.50;99.30;;;;;;5009287;28;20189;-89
2021/07/15 07:10:05;;;;;;;1.40;1.30;;;17.40;99.90;;;;;;5014496;28;20553;-89
2021/07/15 07:12:31;;;;;;;2.27;1.40;;;17.40;99.90;;;;;;5014491;28;20181;-89
2021/07/15 07:14:57;;;;;;;6.90;1.70;;;17.30;99.90;;;;;;5013526;28;20200;-89
2021/07/15 07:17:22;;;;;;;1.53;1.30;;;17.50;99.90;;;;;;5013681;28;20285;-89
2021/07/15 07:19:48;;;;;;;1.50;1.40;;;17.50;99.90;;;;;;5019630;28;20641;-90
2021/07/15 07:22:14;;;;;;;1.30;1.20;;;17.60;99.20;;;;;;5012053;28;20245;-88
2021/07/15 07:24:40;;;;;;;2.78;1.50;;;17.50;98.60;;;;;;5013190;28;20179;-86
2021/07/15 07:27:06;;;;;;;1.67;1.40;;;17.70;98.90;;;;;;5014174;28;20181;-86
2021/07/15 07:29:31;;;;;;;1.52;1.52;;;17.90;97.60;;;;;;5014236;28;20181;-89
2021/07/15 07:31:57;;;;;;;1.85;1.60;;;17.80;98.50;;;;;;4995410;28;20561;-88
2021/07/15 07:34:22;;;;;;;1.45;1.45;;;17.70;97.00;;;;;;5015312;28;20196;-87
2021/07/15 07:36:48;;;;;;;3.13;1.60;;;17.80;95.40;;;;;;4995070;28;20209;-86
2021/07/15 07:39:15;;;;;;;1.55;1.40;;;17.90;96.80;;;;;;5013296;28;20950;-87
2021/07/15 07:41:41;;;;;;;1.70;1.60;;;17.90;98.20;;;;;;5013262;28;20277;-87
2021/07/15 07:44:06;;;;;;;1.42;1.42;;;18.10;96.10;;;;;;5013219;28;20183;-88
2021/07/15 07:46:32;;;;;;;3.17;1.73;;;18.10;95.20;;;;;;5013507;28;20262;-89
2021/07/15 07:48:58;;;;;;;1.60;1.50;;;18.00;95.30;;;;;;5011122;28;20200;-88
2021/07/15 07:51:24;;;;;;;1.58;1.50;;;18.10;95.00;;;;;;5013458;28;20183;-87
2021/07/15 07:53:50;;;;;;;1.50;1.40;;;18.10;94.60;;;;;;5012524;28;20194;-88
2021/07/15 07:56:16;;;;;;;1.83;1.73;;;18.10;95.60;;;;;;5012780;28;20210;-87
2021/07/15 07:58:42;;;;;;;1.67;1.45;;;18.10;94.70;;;;;;5012919;28;20657;-87
2021/07/15 08:01:08;;;;;;;1.70;1.60;;;18.20;93.60;;;;;;4994438;28;20185;-88
2021/07/15 08:03:34;;;;;;;3.38;1.40;;;18.20;94.70;;;;;;5011414;28;20649;-89
2021/07/15 08:06:00;;;;;;;2.08;1.98;;;18.40;93.90;;;;;;5013809;28;20211;-89
2021/07/15 08:08:27;;;;;;;2.20;2.00;;;18.40;94.20;;;;;;5017341;28;20189;-89
2021/07/15 08:10:52;;;;;;;2.08;1.98;;;18.60;91.50;;;;;;5014394;28;20190;-89
2021/07/15 08:13:18;;;;;;;2.45;2.25;;;18.80;88.90;;;;;;4986627;28;20276;-89
2021/07/15 08:15:44;;;;;;;3.63;2.10;;;18.70;91.50;;;;;;5012943;28;20369;-89
2021/07/15 08:18:12;;;;;;;2.28;2.17;;;18.80;89.80;;;;;;5021903;28;20224;-87
2021/07/15 08:20:38;;;;;;;2.20;2.10;;;18.80;89.30;;;;;;5027857;28;20235;-87
2021/07/15 08:23:05;;;;;;;2.83;2.63;;;18.90;88.70;;;;;;4982074;28;20181;-88
2021/07/15 08:25:32;;;;;;;2.53;2.42;;;19.00;89.30;;;;;;5018012;28;20335;-88
2021/07/15 08:27:58;;;;;;;2.70;2.42;;;18.70;89.10;;;;;;5018980;28;20178;-87
2021/07/15 08:30:24;;;;;;;2.65;2.47;;;18.80;89.40;;;;;;5018680;28;20173;-89
2021/07/15 08:32:50;;;;;;;2.55;2.40;;;18.70;90.40;;;;;;5003461;28;20189;-89
2021/07/15 08:35:16;;;;;;;2.67;2.47;;;18.70;90.90;;;;;;5020119;28;20217;-87
2021/07/15 08:37:42;;;;;;;3.33;2.90;;;18.80;89.60;;;;;;5038048;28;20236;-87
2021/07/15 08:40:09;;;;;;;3.03;2.72;;;18.80;89.30;;;;;;5039586;28;20184;-87
2021/07/15 08:42:37;;;;;;;4.10;2.58;;;18.90;88.90;;;;;;5039488;28;20200;-88
2021/07/15 08:45:07;;;;;;;3.33;3.00;;;19.20;87.60;;;;;;5031904;28;20779;-88
2021/07/15 08:47:36;;;;;;;2.85;2.65;;;19.20;87.40;;;;;;5021074;28;20185;-87
2021/07/15 08:50:03;;;;;;;2.90;2.50;;;19.50;87.00;;;;;;5017739;28;20589;-87
2021/07/15 08:52:30;;;;;;;2.22;2.13;;;19.50;86.00;;;;;;5017359;28;20182;-88
2021/07/15 08:56:36;;;;;;;3.30;2.47;;;19.70;85.50;;;;;;5019571;28;20206;-88
2021/07/15 08:57:47;;;;;;;2.28;2.17;;;19.60;85.70;;;;;;5018918;28;20234;-88
2021/07/15 09:00:16;;;;;;;3.40;2.67;;;19.60;86.30;;;;;;5020612;28;20196;-88
2021/07/15 09:02:43;;;;;;;2.25;2.10;;;19.80;85.50;;;;;;5031078;28;20192;-87
2021/07/15 09:05:09;;;;;;;4.43;1.90;;;20.00;83.80;;;;;;5038688;28;20200;-89
2021/07/15 09:07:38;;;;;;;2.10;2.00;;;20.00;82.00;;;;;;5038378;28;20179;-88
2021/07/15 09:10:06;;;;;;;1.83;1.73;;;20.40;79.30;;;;;;5038742;28;20613;-88
2021/07/15 09:12:32;;;;;;;1.70;1.60;;;20.40;78.90;;;;;;5017149;28;20189;-89
2021/07/15 09:14:58;;;;;;;1.73;1.65;;;20.40;81.20;;;;;;5001017;28;20215;-89
2021/07/15 09:17:35;;;;;;;2.00;1.80;;;20.70;77.90;;;;;;5017619;28;20212;-89
2021/07/15 09:20:05;;;;;;;2.03;1.92;;;21.00;77.20;;;;;;5018505;28;20177;-88
2021/07/15 09:22:31;;;;;;;1.88;1.77;;;21.10;76.80;;;;;;5018842;28;20211;-87
2021/07/15 09:25:00;;;;;;;2.10;2.00;;;21.10;76.50;;;;;;5000801;28;20208;-90
2021/07/15 09:27:27;;;;;;;1.92;1.83;;;21.00;77.00;;;;;;5020270;28;20185;-90
2021/07/15 09:30:14;;;;;;;1.80;1.70;;;20.90;77.10;;;;;;5019599;28;20194;-90
2021/07/15 09:32:57;;;;;;;2.42;1.75;;;20.80;77.00;;;;;;5027801;28;20875;-90
2021/07/15 09:35:33;;;;;;;1.90;1.80;;;20.80;78.30;;;;;;5038476;28;20691;-88
2021/07/15 09:38:19;;;;;;;4.38;2.17;;;20.70;78.90;;;;;;5020015;28;20700;-88
2021/07/15 09:40:57;;;;;;;2.42;2.33;;;20.50;81.10;;;;;;5040143;28;20188;-89
2021/07/15 09:43:26;;;;;;;2.22;2.03;;;20.40;81.80;;;;;;5040685;28;20430;-89
2021/07/15 09:46:20;;;;;;;3.20;2.10;;;20.30;81.70;;;;;;5019408;28;20299;-89
2021/07/15 09:48:48;;;;;;;2.00;1.90;;;20.40;80.30;;;;;;5020145;28;20200;-89
2021/07/15 09:51:15;;;;;;;1.70;1.60;;;20.40;79.60;;;;;;5024857;28;20188;-89
2021/07/15 09:53:41;;;;;;;2.05;1.95;;;20.70;80.10;;;;;;5035032;28;20184;-90
2021/07/15 09:56:10;;;;;;;1.90;1.80;;;20.90;78.60;;;;;;5028113;28;20201;-90
2021/07/15 09:58:38;;;;;;;2.17;1.98;;;21.00;76.90;;;;;;5024878;28;20181;-88
2021/07/15 10:01:05;;;;;;;2.75;1.83;;;21.20;76.40;;;;;;5019422;28;20300;-87
2021/07/15 10:03:35;;;;;;;1.75;1.67;;;21.20;75.70;;;;;;5022026;28;20248;-87
2021/07/15 10:06:03;;;;;;;2.00;1.90;;;21.00;77.20;;;;;;5021230;28;20198;-88
2021/07/15 10:08:31;;;;;;;2.00;1.70;;;21.10;76.90;;;;;;5020635;28;20287;-88
2021/07/15 10:11:13;;;;;;;2.05;1.60;;;21.00;77.20;;;;;;5015146;28;20191;-87
2021/07/15 10:13:40;;;;;;;1.90;1.80;;;20.70;79.30;;;;;;5015027;28;20172;-87
2021/07/15 10:16:07;;;;;;;2.20;2.00;;;20.90;79.20;;;;;;5014522;28;20332;-86
2021/07/15 10:18:42;;;;;;;1.80;1.70;;;20.80;78.60;;;;;;5020718;28;20192;-87
2021/07/15 10:21:10;;;;;;;2.00;1.90;;;20.70;78.40;;;;;;5021336;28;20165;-86
2021/07/15 10:23:44;;;;;;;2.00;1.83;;;21.00;78.60;;;;;;5020036;28;20181;-86
2021/07/15 10:26:12;;;;;;;5.88;2.17;;;21.10;79.40;;;;;;5020168;28;20209;-87
2021/07/15 10:28:43;;;;;;;1.55;1.55;;;21.00;81.20;;;;;;5019222;28;20193;-87
2021/07/15 10:31:09;;;;;;;1.80;1.70;;;21.00;79.00;;;;;;5032408;28;20177;-86
2021/07/15 10:33:35;;;;;;;1.63;1.63;;;21.20;78.10;;;;;;5033680;28;20264;-86
2021/07/15 10:36:05;;;;;;;3.50;1.90;;;21.40;74.30;;;;;;5031732;28;20197;-87
2021/07/15 10:38:39;;;;;;;2.00;1.90;;;21.60;74.60;;;;;;5002301;28;20205;-86
2021/07/15 10:41:07;;;;;;;1.80;1.80;;;21.60;74.20;;;;;;5014596;28;20164;-87
2021/07/15 10:43:34;;;;;;;1.60;1.60;;;21.70;73.70;;;;;;5014775;28;20267;-87
2021/07/15 10:46:02;;;;;;;3.08;2.10;;;21.60;73.70;;;;;;5014048;28;20205;-87
2021/07/15 10:48:29;;;;;;;1.90;1.80;;;21.40;75.80;;;;;;5017151;28;20257;-86
2021/07/15 10:50:55;;;;;;;2.00;1.90;;;21.50;75.90;;;;;;5017609;28;20181;-86
2021/07/15 10:53:22;;;;;;;2.20;2.00;;;21.50;77.10;;;;;;5017605;28;20177;-86
2021/07/15 10:55:53;;;;;;;2.90;2.15;;;21.90;73.40;;;;;;5016839;28;20198;-88
2021/07/15 10:58:44;;;;;;;2.33;2.00;;;22.10;72.00;;;;;;5014237;28;20279;-87
2021/07/15 11:01:37;;;;;;;1.88;1.77;;;22.20;70.60;;;;;;5017202;28;20177;-88
2021/07/15 11:04:06;;;;;;;1.90;1.80;;;22.30;71.40;;;;;;5012457;28;20186;-86
2021/07/15 11:06:57;;;;;;;2.13;1.92;;;22.20;70.20;;;;;;4997129;28;20201;-87
2021/07/15 11:09:22;;;;;;;4.00;2.25;;;22.20;71.70;;;;;;5014077;28;20196;-88
2021/07/15 11:11:48;;;;;;;2.17;1.88;;;22.40;70.40;;;;;;5017161;28;20201;-86
2021/07/15 11:14:33;;;;;;;2.10;1.90;;;22.40;70.20;;;;;;5014826;28;20207;-87
2021/07/15 11:16:58;;;;;;;1.95;1.85;;;22.70;69.10;;;;;;5015413;28;20190;-87
2021/07/15 11:20:04;;;;;;;2.75;1.80;;;22.50;71.80;;;;;;5015512;28;20213;-87
2021/07/15 11:22:42;;;;;;;3.53;2.00;;;22.40;72.30;;;;;;5012697;28;20228;-87
2021/07/15 11:25:27;;;;;;;2.10;2.00;;;22.20;72.50;;;;;;5012494;28;20691;-88
2021/07/15 11:27:59;;;;;;;2.42;2.22;;;22.60;71.80;;;;;;5013307;28;20174;-87
2021/07/15 11:30:35;;;;;;;2.40;2.20;;;23.20;68.50;;;;;;5014279;28;20255;-87
2021/07/15 11:33:21;;;;;;;2.53;2.00;;;23.50;68.00;;;;;;5014087;28;20227;-86
2021/07/15 11:35:50;;;;;;;2.40;2.15;;;23.80;69.50;;;;;;5024969;28;20221;-87
2021/07/15 11:38:25;;;;;;;1.83;1.73;;;23.90;69.00;;;;;;5033688;28;20295;-87
2021/07/15 11:40:52;;;;;;;2.30;2.10;;;24.00;67.60;;;;;;5035505;28;20168;-87
2021/07/15 11:43:26;;;;;;;3.33;2.55;;;24.00;65.50;;;;;;5038067;28;20190;-87
2021/07/15 11:46:16;;;;;;;2.28;2.08;;;24.40;66.20;;;;;;5038113;28;20195;-88
2021/07/15 11:49:07;;;;;;;2.03;1.92;;;24.40;64.10;;;;;;5019817;28;20203;-86
2021/07/15 11:51:32;;;;;;;2.40;2.30;;;24.50;64.30;;;;;;5025653;28;20161;-88
2021/07/15 11:54:26;;;;;;;2.50;2.33;;;24.40;65.90;;;;;;5059038;28;20311;-88
2021/07/15 11:57:13;;;;;;;2.13;2.03;;;24.70;63.50;;;;;;5058892;28;20185;-89
2021/07/15 11:59:44;;;;;;;2.35;2.20;;;24.70;63.10;;;;;;5050397;28;20169;-88
2021/07/15 12:02:21;;;;;;;2.47;2.28;;;24.60;63.10;;;;;;5034695;28;20181;-88
2021/07/15 12:05:12;;;;;;;2.00;1.90;;;24.00;66.00;;;;;;5018196;28;20202;-90
2021/07/15 12:07:50;;;;;;;2.25;2.05;;;23.90;65.40;;;;;;5022200;28;20202;-90
2021/07/15 12:10:27;;;;;;;2.00;1.90;;;23.90;65.40;;;;;;5037036;28;20180;-90
2021/07/15 12:12:56;;;;;;;2.13;1.92;;;24.00;63.80;;;;;;5037113;28;20184;-90
2021/07/15 12:15:25;;;;;;;2.10;2.00;;;23.90;64.90;;;;;;5035878;28;20200;-90
2021/07/15 12:17:59;;;;;;;2.58;2.17;;;23.80;63.50;;;;;;5034697;28;20886;-90
2021/07/15 12:20:42;;;;;;;2.30;2.10;;;23.60;64.40;;;;;;5049400;28;20153;-90
2021/07/15 12:23:32;;;;;;;2.00;1.90;;;23.60;64.90;;;;;;5031990;28;20256;-90
2021/07/15 12:26:00;;;;;;;2.15;1.85;;;23.50;64.90;;;;;;5032274;28;20201;-90
2021/07/15 12:28:29;;;;;;;2.22;1.85;;;23.50;66.00;;;;;;5009554;28;20170;-90
2021/07/15 12:31:05;;;;;;;1.67;1.67;;;23.50;64.80;;;;;;5002914;28;20542;-88
2021/07/15 12:33:44;;;;;;;2.63;2.13;;;23.60;65.20;;;;;;5019615;28;20205;-88
2021/07/15 12:36:15;;;;;;;2.22;1.90;;;23.70;65.70;;;;;;5018726;28;20707;-88
2021/07/15 12:38:49;;;;;;;2.50;2.30;;;23.80;63.90;;;;;;5021152;28;20233;-89
2021/07/15 12:41:24;;;;;;;2.63;2.20;;;23.80;65.10;;;;;;5020149;28;20201;-89
2021/07/15 12:43:55;;;;;;;2.83;2.03;;;23.60;66.70;;;;;;5021228;28;20173;-89
2021/07/15 12:46:26;;;;;;;2.10;2.00;;;23.70;67.00;;;;;;5021116;28;20197;-89
2021/07/15 12:48:55;;;;;;;2.83;2.35;;;24.10;64.00;;;;;;5031752;28;20185;-89
2021/07/15 12:51:24;;;;;;;2.50;2.30;;;24.50;62.60;;;;;;5019982;28;20181;-89
2021/07/15 12:53:51;;;;;;;3.15;2.58;;;24.50;61.90;;;;;;4997154;28;20178;-88
2021/07/15 12:56:26;;;;;;;2.20;2.10;;;24.30;63.80;;;;;;5020452;28;20201;-89
2021/07/15 12:58:59;;;;;;;2.50;2.30;;;24.50;62.70;;;;;;5021399;28;20176;-90
2021/07/15 13:01:25;;;;;;;2.10;2.00;;;24.40;63.70;;;;;;5001302;28;20289;-89